Time;durP1;ratioP1;P1;durP2;ratioP2;P2;SDS_P1;SDS_P2;PMS_P1;PMS_P2;Temp;Humidity;BMP_temperature;BMP_pressure;BME280_temperature;BME280_humidity;BME280_pressure;Samples;Min_cycle;Max_cycle;Signal;HPM_P1;HPM_P2
2023/09/22 00:00:16;;;;;;;2.73;0.80;;;11.60;99.90;;;;;;2058154;28;20222;-79
2023/09/22 00:01:17;;;;;;;0.93;0.70;;;11.60;99.90;;;;;;2065987;28;20659;-79
2023/09/22 00:02:17;;;;;;;0.80;0.70;;;11.70;99.90;;;;;;2061047;28;20307;-80
2023/09/22 00:03:18;;;;;;;1.07;0.67;;;11.70;99.90;;;;;;2061193;28;20232;-79
2023/09/22 00:04:19;;;;;;;1.30;0.90;;;11.70;99.90;;;;;;2068162;28;20248;-80
2023/09/22 00:05:19;;;;;;;1.20;0.90;;;11.70;99.90;;;;;;2071806;28;20216;-79
2023/09/22 00:06:22;;;;;;;0.87;0.83;;;11.70;99.90;;;;;;2071435;28;20191;-79
2023/09/22 00:07:22;;;;;;;1.80;0.77;;;11.70;99.90;;;;;;2071578;28;20321;-79
2023/09/22 00:08:23;;;;;;;1.23;0.73;;;11.70;99.90;;;;;;2071552;28;20225;-80
2023/09/22 00:09:24;;;;;;;1.47;0.90;;;11.70;99.90;;;;;;2070940;28;20232;-79
2023/09/22 00:10:24;;;;;;;0.80;0.70;;;11.60;99.90;;;;;;2070472;28;20228;-79
2023/09/22 00:11:25;;;;;;;1.13;0.80;;;11.60;99.90;;;;;;2071797;28;20221;-79
2023/09/22 00:12:26;;;;;;;1.00;0.90;;;11.60;99.90;;;;;;2071175;28;20399;-80
2023/09/22 00:13:26;;;;;;;2.90;1.00;;;11.60;99.90;;;;;;2062923;28;20292;-79
2023/09/22 00:14:27;;;;;;;1.20;0.70;;;11.70;99.90;;;;;;2071269;28;20228;-80
2023/09/22 00:15:27;;;;;;;1.93;0.90;;;11.60;99.90;;;;;;2070904;28;20244;-80
2023/09/22 00:16:28;;;;;;;2.00;0.90;;;11.70;99.90;;;;;;2071425;28;20231;-79
2023/09/22 00:17:28;;;;;;;0.70;0.70;;;11.70;99.90;;;;;;2070741;28;20655;-80
2023/09/22 00:18:29;;;;;;;0.80;0.80;;;11.70;99.90;;;;;;2071038;28;20240;-79
2023/09/22 00:19:31;;;;;;;1.03;0.90;;;11.80;99.90;;;;;;2071478;28;20712;-80
2023/09/22 00:20:31;;;;;;;1.50;0.95;;;11.90;99.90;;;;;;2070912;28;20225;-80
2023/09/22 00:21:32;;;;;;;2.70;1.00;;;12.00;99.90;;;;;;2063453;28;20226;-80
2023/09/22 00:22:33;;;;;;;1.65;0.80;;;11.90;99.90;;;;;;2062632;28;20722;-80
2023/09/22 00:23:34;;;;;;;1.10;0.77;;;12.00;99.90;;;;;;2062541;28;20226;-80
2023/09/22 00:24:34;;;;;;;0.83;0.83;;;12.00;99.90;;;;;;2071215;28;20230;-80
2023/09/22 00:25:35;;;;;;;0.90;0.80;;;11.90;99.90;;;;;;2071568;28;20249;-80
2023/09/22 00:26:35;;;;;;;3.20;1.13;;;12.00;99.90;;;;;;2070970;28;20706;-81
2023/09/22 00:27:37;;;;;;;1.47;0.80;;;12.00;99.90;;;;;;2071066;28;20249;-80
2023/09/22 00:28:38;;;;;;;1.67;1.00;;;12.00;99.90;;;;;;2071268;28;20260;-81
2023/09/22 00:29:38;;;;;;;2.43;1.00;;;11.90;99.90;;;;;;2070756;28;20676;-80
2023/09/22 00:30:39;;;;;;;1.57;0.80;;;11.90;99.90;;;;;;2062766;28;20364;-81
2023/09/22 00:31:39;;;;;;;2.30;0.90;;;11.90;99.90;;;;;;2070878;28;20698;-80
2023/09/22 00:32:40;;;;;;;1.67;0.97;;;11.90;99.90;;;;;;2071724;28;20229;-81
2023/09/22 00:33:41;;;;;;;3.17;1.00;;;12.00;99.90;;;;;;2071455;28;20251;-80
2023/09/22 00:34:41;;;;;;;1.20;0.80;;;12.00;99.90;;;;;;2071628;28;20232;-81
2023/09/22 00:35:42;;;;;;;2.20;0.90;;;12.00;99.90;;;;;;2071755;28;20300;-80
2023/09/22 00:36:43;;;;;;;1.30;0.90;;;11.90;99.90;;;;;;2070796;28;20312;-80
2023/09/22 00:37:44;;;;;;;1.10;0.95;;;11.90;99.90;;;;;;2070748;28;20217;-81
2023/09/22 00:38:45;;;;;;;1.43;0.90;;;12.00;99.90;;;;;;2071245;28;20232;-80
2023/09/22 00:39:45;;;;;;;1.17;1.03;;;12.00;99.90;;;;;;2070349;28;20272;-80
2023/09/22 00:40:46;;;;;;;2.47;1.00;;;12.00;99.90;;;;;;2062967;28;20687;-81
2023/09/22 00:41:46;;;;;;;1.40;1.00;;;12.00;99.90;;;;;;2062755;28;20230;-79
2023/09/22 00:43:04;;;;;;;1.10;0.93;;;12.00;99.90;;;;;;2062494;28;20718;-81
2023/09/22 00:44:05;;;;;;;2.80;1.00;;;12.10;99.90;;;;;;2068933;28;20228;-80
2023/09/22 00:45:06;;;;;;;1.98;0.90;;;12.10;99.90;;;;;;2070822;28;20186;-80
2023/09/22 00:46:07;;;;;;;3.10;1.03;;;12.10;99.90;;;;;;2070767;28;20265;-81
2023/09/22 00:47:13;;;;;;;1.00;0.90;;;12.20;99.90;;;;;;2063130;28;20479;-81
2023/09/22 00:48:22;;;;;;;1.40;1.10;;;12.20;99.90;;;;;;2063484;28;20651;-81
2023/09/22 00:49:24;;;;;;;2.45;1.10;;;12.20;99.90;;;;;;2060720;28;20245;-80
2023/09/22 00:50:24;;;;;;;2.17;1.02;;;12.10;99.90;;;;;;2062462;28;20237;-80
2023/09/22 00:51:26;;;;;;;1.40;1.00;;;12.10;99.90;;;;;;2070835;28;20235;-80
2023/09/22 00:52:27;;;;;;;1.77;1.10;;;12.10;99.90;;;;;;2078844;28;20855;-81
2023/09/22 00:53:31;;;;;;;2.05;1.00;;;12.00;99.90;;;;;;2072190;28;20244;-81
2023/09/22 00:54:32;;;;;;;1.88;0.90;;;11.90;99.90;;;;;;2072364;28;20352;-80
2023/09/22 00:55:32;;;;;;;2.25;0.85;;;11.80;99.90;;;;;;2072919;28;20225;-81
2023/09/22 00:56:33;;;;;;;1.77;0.80;;;11.80;99.90;;;;;;2072176;28;20569;-80
2023/09/22 00:57:34;;;;;;;1.07;0.80;;;11.80;99.90;;;;;;2073020;28;20263;-81
2023/09/22 00:58:36;;;;;;;2.60;1.00;;;11.80;99.90;;;;;;2071887;28;20217;-80
2023/09/22 00:59:37;;;;;;;1.83;1.00;;;11.80;99.90;;;;;;2072309;28;20674;-80
2023/09/22 01:00:40;;;;;;;1.33;1.02;;;11.90;99.90;;;;;;2069287;28;20249;-80
2023/09/22 01:01:42;;;;;;;1.48;0.90;;;12.00;99.90;;;;;;2072093;28;20665;-80
2023/09/22 01:02:43;;;;;;;1.98;0.88;;;12.10;99.90;;;;;;2072242;28;20279;-81
2023/09/22 01:03:44;;;;;;;1.23;1.00;;;12.10;99.90;;;;;;2072481;28;20356;-80
2023/09/22 01:04:45;;;;;;;1.15;1.00;;;12.10;99.90;;;;;;2072550;28;20223;-81
2023/09/22 01:05:46;;;;;;;1.73;1.10;;;12.20;99.90;;;;;;2072325;28;20272;-80
2023/09/22 01:06:47;;;;;;;2.23;1.27;;;12.20;99.90;;;;;;2071369;28;20701;-80
2023/09/22 01:07:48;;;;;;;1.73;1.10;;;12.30;99.90;;;;;;2072464;28;20631;-80
2023/09/22 01:08:48;;;;;;;0.80;0.80;;;12.30;99.90;;;;;;2072175;28;20586;-80
2023/09/22 01:09:49;;;;;;;2.13;1.23;;;12.20;99.90;;;;;;2072239;28;20280;-81
2023/09/22 01:10:49;;;;;;;1.07;0.97;;;12.30;99.90;;;;;;2071510;28;20260;-81
2023/09/22 01:11:50;;;;;;;1.60;1.10;;;12.20;99.90;;;;;;2063347;28;20237;-81
2023/09/22 01:12:53;;;;;;;1.97;1.27;;;12.20;99.90;;;;;;2071625;28;20241;-80
2023/09/22 01:13:53;;;;;;;1.55;1.05;;;12.10;99.90;;;;;;2072123;28;20307;-81
2023/09/22 01:14:54;;;;;;;1.87;1.20;;;12.20;99.90;;;;;;2071154;28;20229;-81
2023/09/22 01:15:57;;;;;;;1.20;1.00;;;12.20;99.90;;;;;;2071223;28;20232;-81
2023/09/22 01:16:58;;;;;;;2.00;1.00;;;12.30;99.90;;;;;;2063497;28;20588;-81
2023/09/22 01:17:59;;;;;;;2.92;1.30;;;12.30;99.90;;;;;;2053889;28;20724;-80
2023/09/22 01:18:59;;;;;;;1.70;1.20;;;12.30;99.90;;;;;;2071238;28;20221;-80
2023/09/22 01:20:00;;;;;;;2.43;1.30;;;12.30;99.90;;;;;;2072056;28;20225;-81
2023/09/22 01:21:01;;;;;;;2.47;1.43;;;12.40;99.90;;;;;;2072588;28;20229;-80
2023/09/22 01:22:02;;;;;;;3.03;1.30;;;12.40;99.90;;;;;;2071293;28;20619;-80
2023/09/22 01:23:03;;;;;;;3.72;1.55;;;12.40;99.90;;;;;;2071369;28;20222;-81
2023/09/22 01:24:04;;;;;;;1.87;1.27;;;12.30;99.90;;;;;;2071748;28;20568;-80
2023/09/22 01:25:05;;;;;;;2.88;1.30;;;12.20;99.90;;;;;;2071482;28;20562;-80
2023/09/22 01:26:05;;;;;;;1.77;1.30;;;12.10;99.90;;;;;;2071335;28;20193;-81
2023/09/22 01:27:06;;;;;;;1.13;1.00;;;12.10;99.90;;;;;;2071746;28;20193;-80
2023/09/22 01:28:07;;;;;;;1.93;1.10;;;12.10;99.90;;;;;;2072217;28;20675;-80
2023/09/22 01:29:08;;;;;;;1.38;1.05;;;11.90;99.90;;;;;;2071572;28;20194;-81
2023/09/22 01:30:09;;;;;;;3.23;1.20;;;12.00;99.90;;;;;;2071135;28;20836;-80
2023/09/22 01:31:11;;;;;;;2.45;1.13;;;11.90;99.90;;;;;;2069820;28;20216;-80
2023/09/22 01:32:11;;;;;;;1.75;1.15;;;11.90;99.90;;;;;;2071864;28;20291;-79
2023/09/22 01:33:12;;;;;;;1.63;1.10;;;12.00;99.90;;;;;;2071059;28;20724;-79
2023/09/22 01:34:15;;;;;;;2.93;1.20;;;12.00;99.90;;;;;;2072805;28;20189;-80
2023/09/22 01:35:16;;;;;;;1.50;1.13;;;12.00;99.90;;;;;;2073455;28;20186;-80
2023/09/22 01:36:17;;;;;;;2.83;1.10;;;11.90;99.90;;;;;;2072626;28;20189;-80
2023/09/22 01:37:19;;;;;;;1.37;0.93;;;11.90;99.90;;;;;;2071802;28;20609;-80
2023/09/22 01:38:24;;;;;;;2.17;1.33;;;11.90;99.90;;;;;;2070685;28;20550;-80
2023/09/22 01:39:25;;;;;;;1.15;1.05;;;11.90;99.90;;;;;;2070520;28;20325;-81
2023/09/22 01:40:26;;;;;;;3.63;1.20;;;12.00;99.90;;;;;;2071335;28;20229;-80
2023/09/22 01:41:27;;;;;;;2.13;1.17;;;12.00;99.90;;;;;;2071241;28;20263;-81
2023/09/22 01:42:28;;;;;;;2.08;1.02;;;12.10;99.90;;;;;;2071446;28;20253;-80
2023/09/22 01:43:28;;;;;;;1.63;1.10;;;12.00;99.90;;;;;;2071438;28;20241;-80
2023/09/22 01:44:29;;;;;;;1.50;1.10;;;12.00;99.90;;;;;;2071351;28;20237;-80
2023/09/22 01:45:29;;;;;;;1.20;1.10;;;12.00;99.90;;;;;;2071311;28;20768;-83
2023/09/22 01:46:30;;;;;;;1.30;1.10;;;11.90;99.90;;;;;;2071452;28;20382;-81
2023/09/22 01:47:32;;;;;;;1.33;1.00;;;11.90;99.90;;;;;;2071510;28;20221;-81
2023/09/22 01:48:33;;;;;;;2.40;1.02;;;12.00;99.90;;;;;;2071316;28;20217;-81
2023/09/22 01:49:33;;;;;;;0.90;0.90;;;12.00;99.90;;;;;;2071655;28;20225;-80
2023/09/22 01:50:38;;;;;;;1.77;1.07;;;12.00;99.90;;;;;;2071068;28;20221;-80
2023/09/22 01:51:39;;;;;;;2.90;1.05;;;11.90;99.90;;;;;;2069183;28;20225;-81
2023/09/22 01:52:40;;;;;;;1.63;1.10;;;12.00;99.90;;;;;;2072350;28;20313;-81
2023/09/22 01:53:40;;;;;;;1.00;0.90;;;11.80;99.90;;;;;;2073090;28;20260;-79
2023/09/22 01:54:41;;;;;;;2.63;1.10;;;11.70;99.90;;;;;;2074590;28;20233;-79
2023/09/22 01:55:42;;;;;;;1.70;0.93;;;11.80;99.90;;;;;;2075424;28;20237;-81
2023/09/22 01:56:42;;;;;;;1.10;1.00;;;11.80;99.90;;;;;;2071590;28;20225;-81
2023/09/22 01:57:46;;;;;;;1.20;1.00;;;11.90;99.90;;;;;;2072316;28;20225;-81
2023/09/22 01:58:48;;;;;;;2.05;1.30;;;11.90;99.90;;;;;;2072290;28;20229;-81
2023/09/22 01:59:49;;;;;;;1.80;1.17;;;11.90;99.90;;;;;;2072818;28;20228;-82
2023/09/22 02:00:49;;;;;;;3.13;1.10;;;11.90;99.90;;;;;;2071052;28;20226;-81
2023/09/22 02:01:50;;;;;;;1.10;1.00;;;11.90;99.90;;;;;;2063917;28;20273;-81
2023/09/22 02:02:50;;;;;;;1.87;1.17;;;11.90;99.90;;;;;;2069973;28;20233;-81
2023/09/22 02:03:54;;;;;;;1.30;1.20;;;11.80;99.90;;;;;;2079353;28;20294;-81
2023/09/22 02:04:54;;;;;;;2.42;1.17;;;11.80;99.90;;;;;;2070686;28;20229;-81
2023/09/22 02:05:55;;;;;;;2.33;1.30;;;11.80;99.90;;;;;;2071741;28;20222;-81
2023/09/22 02:06:57;;;;;;;1.20;0.95;;;11.90;99.90;;;;;;2071632;28;20229;-80
2023/09/22 02:07:57;;;;;;;2.08;1.10;;;12.00;99.90;;;;;;2071086;28;20734;-81
2023/09/22 02:08:58;;;;;;;1.77;1.10;;;12.00;99.90;;;;;;2078825;28;20260;-82
2023/09/22 02:09:58;;;;;;;2.07;1.10;;;12.00;99.90;;;;;;2072098;28;20231;-81
2023/09/22 02:10:59;;;;;;;1.07;0.90;;;12.00;99.90;;;;;;2071643;28;20760;-81
2023/09/22 02:12:00;;;;;;;1.23;1.13;;;12.00;99.90;;;;;;2072853;28;20694;-81
2023/09/22 02:13:00;;;;;;;1.70;1.17;;;12.00;99.90;;;;;;2071392;28;20259;-81
2023/09/22 02:14:01;;;;;;;2.50;1.30;;;12.00;99.90;;;;;;2071506;28;20245;-81
2023/09/22 02:15:02;;;;;;;1.63;1.07;;;11.90;99.90;;;;;;2071419;28;20233;-81
2023/09/22 02:16:03;;;;;;;1.43;0.97;;;11.80;99.90;;;;;;2070221;28;20267;-80
2023/09/22 02:17:03;;;;;;;1.48;1.00;;;11.90;99.90;;;;;;2071854;28;20195;-81
2023/09/22 02:18:04;;;;;;;1.03;0.90;;;11.90;99.90;;;;;;2072778;28;20671;-82
2023/09/22 02:19:05;;;;;;;2.27;1.00;;;11.90;99.90;;;;;;2071636;28;20189;-79
2023/09/22 02:20:40;;;;;;;1.73;1.00;;;11.90;99.90;;;;;;2073974;28;20273;-81
2023/09/22 02:21:33;;;;;;;2.80;1.00;;;11.90;99.90;;;;;;2068863;28;20550;-82
2023/09/22 02:22:35;;;;;;;2.20;1.00;;;11.80;99.90;;;;;;2070899;28;20240;-81
2023/09/22 02:23:37;;;;;;;1.80;1.10;;;11.80;99.90;;;;;;2071533;28;20224;-81
2023/09/22 02:24:39;;;;;;;1.27;0.95;;;11.80;99.90;;;;;;2071054;28;20221;-82
2023/09/22 02:25:39;;;;;;;1.42;1.00;;;11.80;99.90;;;;;;2071464;28;20229;-81
2023/09/22 02:26:40;;;;;;;2.00;1.00;;;11.80;99.90;;;;;;2067133;28;20229;-80
2023/09/22 02:27:41;;;;;;;1.53;1.00;;;11.70;99.90;;;;;;2082076;28;20238;-80
2023/09/22 02:28:42;;;;;;;1.60;1.25;;;11.80;99.90;;;;;;2081849;28;20209;-79
2023/09/22 02:29:42;;;;;;;1.20;1.10;;;11.80;99.90;;;;;;2077107;28;20222;-81
2023/09/22 02:30:43;;;;;;;2.43;1.27;;;11.80;99.90;;;;;;2073533;28;20229;-81
2023/09/22 02:31:43;;;;;;;1.17;1.00;;;11.80;99.90;;;;;;2063013;28;20226;-81
2023/09/22 02:32:48;;;;;;;1.50;1.00;;;11.80;99.90;;;;;;2065870;28;20221;-81
2023/09/22 02:33:49;;;;;;;1.00;1.00;;;11.80;99.90;;;;;;2065990;28;20254;-81
2023/09/22 02:34:50;;;;;;;1.03;0.83;;;11.80;99.90;;;;;;2065272;28;20675;-81
2023/09/22 02:35:50;;;;;;;1.37;1.00;;;11.70;99.90;;;;;;2071181;28;20245;-81
2023/09/22 02:36:51;;;;;;;1.80;1.10;;;11.70;99.90;;;;;;2072249;28;20221;-81
2023/09/22 02:37:51;;;;;;;1.73;0.90;;;11.70;99.90;;;;;;2071525;28;20229;-81
2023/09/22 02:38:52;;;;;;;2.63;1.03;;;11.70;99.90;;;;;;2071500;28;20217;-81
2023/09/22 02:39:52;;;;;;;2.70;1.10;;;11.70;99.90;;;;;;2070912;28;20222;-82
2023/09/22 02:40:53;;;;;;;1.07;0.87;;;11.70;99.90;;;;;;2072324;28;20225;-81
2023/09/22 02:41:54;;;;;;;1.33;0.93;;;11.70;99.90;;;;;;2077983;28;20277;-80
2023/09/22 02:42:54;;;;;;;1.00;0.90;;;11.70;99.90;;;;;;2078948;28;20375;-80
2023/09/22 02:43:56;;;;;;;1.10;0.90;;;11.70;99.90;;;;;;2081467;28;20227;-80
2023/09/22 02:44:57;;;;;;;1.58;0.90;;;11.60;99.90;;;;;;2072853;28;20217;-80
2023/09/22 02:46:03;;;;;;;1.47;1.20;;;11.60;99.90;;;;;;2063390;28;20218;-81
2023/09/22 02:47:04;;;;;;;1.58;0.82;;;11.60;99.90;;;;;;2062901;28;20230;-80
2023/09/22 02:48:06;;;;;;;1.23;0.83;;;11.60;99.90;;;;;;2063290;28;20182;-80
2023/09/22 02:49:07;;;;;;;1.30;0.80;;;11.60;99.90;;;;;;2070888;28;20186;-80
2023/09/22 02:50:10;;;;;;;1.20;1.10;;;11.60;99.90;;;;;;2071840;28;20216;-80
2023/09/22 02:51:10;;;;;;;1.88;0.90;;;11.70;99.90;;;;;;2071199;28;20748;-80
2023/09/22 02:52:11;;;;;;;2.57;1.00;;;11.70;99.90;;;;;;2072027;28;20182;-80
2023/09/22 02:53:11;;;;;;;1.17;1.07;;;11.70;99.90;;;;;;2071471;28;20635;-80
2023/09/22 02:54:13;;;;;;;1.90;1.07;;;11.70;99.90;;;;;;2071046;28;20194;-80
2023/09/22 02:55:14;;;;;;;1.92;1.00;;;11.70;99.90;;;;;;2071067;28;20228;-80
2023/09/22 02:56:14;;;;;;;1.30;1.00;;;11.70;99.90;;;;;;2071231;28;20243;-81
2023/09/22 02:57:15;;;;;;;1.37;0.90;;;11.80;99.90;;;;;;2070970;28;20712;-81
2023/09/22 02:58:16;;;;;;;1.13;1.03;;;11.80;99.90;;;;;;2079560;28;20656;-81
2023/09/22 02:59:18;;;;;;;2.47;0.80;;;11.80;99.90;;;;;;2071451;28;20197;-80
2023/09/22 03:00:20;;;;;;;2.30;0.93;;;11.70;99.90;;;;;;2071931;28;20712;-81
2023/09/22 03:01:21;;;;;;;1.10;1.00;;;11.80;99.90;;;;;;2071469;28;20217;-81
2023/09/22 03:02:21;;;;;;;3.07;1.03;;;11.80;99.90;;;;;;2072240;28;20209;-80
2023/09/22 03:03:22;;;;;;;1.20;0.90;;;11.70;99.90;;;;;;2072540;28;20233;-81
2023/09/22 03:04:23;;;;;;;2.07;0.93;;;11.70;99.90;;;;;;2072504;28;20244;-81
2023/09/22 03:05:23;;;;;;;1.50;1.10;;;11.70;99.90;;;;;;2071897;28;21106;-81
2023/09/22 03:06:24;;;;;;;1.23;1.03;;;11.80;99.90;;;;;;2070948;28;20259;-81
2023/09/22 03:07:25;;;;;;;1.10;0.90;;;11.80;99.90;;;;;;2071602;28;20714;-80
2023/09/22 03:08:25;;;;;;;1.20;1.00;;;11.90;99.90;;;;;;2071791;28;20261;-80
2023/09/22 03:09:26;;;;;;;0.70;0.70;;;11.90;99.90;;;;;;2073344;28;20260;-80
2023/09/22 03:10:26;;;;;;;1.60;0.90;;;12.00;99.90;;;;;;2072211;28;20709;-81
2023/09/22 03:11:27;;;;;;;1.00;0.90;;;12.00;99.90;;;;;;2072447;28;20233;-81
2023/09/22 03:12:28;;;;;;;1.77;0.80;;;12.10;99.90;;;;;;2071422;28;20225;-81
2023/09/22 03:13:28;;;;;;;1.17;1.07;;;12.10;99.90;;;;;;2071203;28;20324;-81
2023/09/22 03:14:29;;;;;;;1.40;1.07;;;12.20;99.90;;;;;;2072037;28;20263;-82
2023/09/22 03:15:29;;;;;;;1.67;1.20;;;12.20;99.90;;;;;;2071782;28;20264;-81
2023/09/22 03:16:31;;;;;;;1.13;0.97;;;12.30;99.90;;;;;;2072243;28;20725;-81
2023/09/22 03:17:32;;;;;;;1.08;0.82;;;12.30;99.90;;;;;;2070469;28;20225;-81
2023/09/22 03:18:32;;;;;;;1.37;0.90;;;12.20;99.90;;;;;;2071951;28;20226;-81
2023/09/22 03:19:33;;;;;;;0.87;0.87;;;12.30;99.90;;;;;;2071100;28;20455;-81
2023/09/22 03:20:34;;;;;;;3.17;1.07;;;12.20;99.90;;;;;;2072224;28;20225;-81
2023/09/22 03:21:34;;;;;;;2.40;2.20;;;12.30;99.90;;;;;;2071464;28;20268;-81
2023/09/22 03:22:36;;;;;;;1.53;1.40;;;12.20;99.90;;;;;;2071075;28;20217;-81
2023/09/22 03:23:36;;;;;;;1.10;1.00;;;12.20;99.90;;;;;;2072157;28;20228;-81
2023/09/22 03:24:37;;;;;;;0.93;0.87;;;12.20;99.90;;;;;;2071402;28;20225;-81
2023/09/22 03:25:38;;;;;;;1.43;1.07;;;12.30;99.90;;;;;;2072030;28;20222;-80
2023/09/22 03:26:38;;;;;;;1.10;1.00;;;12.30;99.90;;;;;;2072463;28;20224;-82
2023/09/22 03:27:39;;;;;;;1.37;0.93;;;12.30;99.90;;;;;;2071406;28;20233;-81
2023/09/22 03:28:39;;;;;;;1.10;1.00;;;12.30;99.90;;;;;;2063147;28;20234;-81
2023/09/22 03:29:40;;;;;;;1.77;1.00;;;12.40;99.90;;;;;;2071471;28;20229;-81
2023/09/22 03:30:40;;;;;;;1.40;1.00;;;12.60;99.90;;;;;;2071101;28;20225;-82
2023/09/22 03:31:41;;;;;;;1.23;1.03;;;12.70;99.90;;;;;;2063467;28;20623;-81
2023/09/22 03:32:42;;;;;;;1.20;1.00;;;12.80;99.90;;;;;;2063436;28;20666;-81
2023/09/22 03:33:46;;;;;;;1.23;1.00;;;12.90;99.90;;;;;;2071879;28;20279;-81
2023/09/22 03:34:48;;;;;;;1.38;1.00;;;12.90;99.90;;;;;;2071231;28;20225;-81
2023/09/22 03:35:48;;;;;;;2.05;1.00;;;12.80;99.90;;;;;;2071872;28;20232;-80
2023/09/22 03:36:49;;;;;;;2.07;1.30;;;12.80;99.90;;;;;;2071626;28;20232;-81
2023/09/22 03:37:52;;;;;;;1.10;1.00;;;12.70;99.90;;;;;;2072323;28;20236;-81
2023/09/22 03:38:52;;;;;;;1.65;1.15;;;12.70;99.90;;;;;;2071311;28;20737;-82
2023/09/22 03:39:56;;;;;;;1.43;1.03;;;12.70;99.90;;;;;;2072406;28;20225;-81
2023/09/22 03:41:00;;;;;;;2.03;0.90;;;12.70;99.90;;;;;;2071649;28;20256;-81
2023/09/22 03:42:01;;;;;;;1.40;0.98;;;12.60;99.90;;;;;;2071671;28;20233;-80
2023/09/22 03:43:03;;;;;;;1.10;1.00;;;12.60;99.90;;;;;;2072040;28;20225;-81
2023/09/22 03:44:04;;;;;;;1.75;1.00;;;12.60;99.90;;;;;;2070713;28;20214;-80
2023/09/22 03:45:07;;;;;;;1.15;1.05;;;12.50;99.90;;;;;;2071255;28;20182;-81
2023/09/22 03:46:08;;;;;;;1.27;1.00;;;12.40;99.90;;;;;;2062560;28;20213;-81
2023/09/22 03:47:08;;;;;;;1.73;0.90;;;12.40;99.90;;;;;;2063497;28;20194;-81
2023/09/22 03:48:09;;;;;;;1.03;1.00;;;12.30;99.90;;;;;;2061997;28;20238;-81
2023/09/22 03:49:09;;;;;;;1.27;1.00;;;12.30;99.90;;;;;;2070772;28;20198;-81
2023/09/22 03:50:10;;;;;;;0.90;0.80;;;12.40;99.90;;;;;;2073672;28;20185;-80
2023/09/22 03:51:11;;;;;;;1.37;1.27;;;12.40;99.90;;;;;;2074440;28;20206;-81
2023/09/22 03:52:14;;;;;;;1.20;1.10;;;12.40;99.90;;;;;;2074507;28;20204;-80
2023/09/22 03:53:15;;;;;;;1.48;1.38;;;12.40;99.90;;;;;;2077665;28;20272;-80
2023/09/22 03:54:15;;;;;;;1.98;1.20;;;12.30;99.90;;;;;;2072970;28;20677;-81
2023/09/22 03:55:16;;;;;;;1.70;1.20;;;12.30;99.90;;;;;;2073372;28;20192;-81
2023/09/22 03:56:17;;;;;;;3.77;1.13;;;12.20;99.90;;;;;;2072852;28;20189;-81
2023/09/22 03:57:18;;;;;;;1.50;1.20;;;12.10;99.90;;;;;;2072028;28;20217;-81
2023/09/22 03:58:20;;;;;;;1.50;1.00;;;12.00;99.90;;;;;;2072248;28;20208;-81
2023/09/22 03:59:20;;;;;;;2.60;1.33;;;11.90;99.90;;;;;;2079739;28;20287;-81
2023/09/22 04:00:27;;;;;;;1.20;1.10;;;11.80;99.90;;;;;;2072361;28;20208;-81
2023/09/22 04:01:28;;;;;;;1.63;1.15;;;11.80;99.90;;;;;;2072708;28;20221;-81
2023/09/22 04:02:29;;;;;;;1.73;1.27;;;11.80;99.90;;;;;;2071402;28;20241;-81
2023/09/22 04:03:30;;;;;;;1.50;1.25;;;11.80;99.90;;;;;;2072539;28;20225;-81
2023/09/22 04:04:31;;;;;;;1.40;1.20;;;11.80;99.90;;;;;;2072261;28;20593;-81
2023/09/22 04:05:32;;;;;;;2.17;1.20;;;11.80;99.90;;;;;;2063884;28;20237;-81
2023/09/22 04:06:32;;;;;;;1.73;1.33;;;11.70;99.90;;;;;;2063624;28;20226;-80
2023/09/22 04:07:33;;;;;;;1.60;1.50;;;11.60;99.90;;;;;;2073022;28;20232;-80
2023/09/22 04:08:34;;;;;;;3.30;1.40;;;11.60;99.90;;;;;;2073017;28;20229;-80
2023/09/22 04:09:34;;;;;;;1.80;1.30;;;11.50;99.90;;;;;;2067720;28;20475;-81
2023/09/22 04:10:35;;;;;;;2.20;1.20;;;11.50;99.90;;;;;;2067217;28;20226;-81
2023/09/22 04:11:36;;;;;;;1.90;1.70;;;11.40;99.90;;;;;;2063502;28;20228;-81
2023/09/22 04:12:36;;;;;;;1.60;1.40;;;11.40;99.90;;;;;;2079278;28;20217;-79
2023/09/22 04:13:37;;;;;;;2.17;1.30;;;11.40;99.90;;;;;;2080155;28;20225;-80
2023/09/22 04:14:38;;;;;;;1.37;1.27;;;11.40;99.90;;;;;;2073566;28;20259;-81
2023/09/22 04:15:38;;;;;;;2.13;1.37;;;11.40;99.90;;;;;;2080471;28;20233;-80
2023/09/22 04:16:39;;;;;;;1.60;1.37;;;11.40;99.90;;;;;;2080713;28;20241;-81
2023/09/22 04:17:40;;;;;;;2.53;1.30;;;11.50;99.90;;;;;;2080334;28;20519;-80
2023/09/22 04:18:41;;;;;;;1.57;1.20;;;11.40;99.90;;;;;;2080538;28;20252;-81
2023/09/22 04:19:41;;;;;;;1.70;1.30;;;11.40;99.90;;;;;;2072352;28;20246;-80
2023/09/22 04:20:50;;;;;;;2.60;1.40;;;11.40;99.90;;;;;;2081492;28;20272;-79
2023/09/22 04:21:51;;;;;;;3.65;1.58;;;11.50;99.90;;;;;;2081823;28;20251;-80
2023/09/22 04:22:53;;;;;;;1.85;1.20;;;11.50;99.90;;;;;;2080869;28;20224;-81
2023/09/22 04:23:59;;;;;;;2.88;1.40;;;11.50;99.90;;;;;;2071596;28;20228;-81
2023/09/22 04:25:01;;;;;;;3.03;1.52;;;11.50;99.90;;;;;;2063480;28;20694;-81
2023/09/22 04:26:09;;;;;;;1.77;1.20;;;11.50;99.90;;;;;;2069348;28;20312;-81
2023/09/22 04:27:11;;;;;;;1.45;1.20;;;11.50;99.90;;;;;;2070509;28;20245;-81
2023/09/22 04:28:12;;;;;;;1.50;1.30;;;11.40;99.90;;;;;;2071708;28;20219;-81
2023/09/22 04:29:14;;;;;;;1.52;1.25;;;11.40;99.90;;;;;;2063857;28;20194;-79
2023/09/22 04:30:16;;;;;;;3.03;1.20;;;11.40;99.90;;;;;;2072348;28;20212;-81
2023/09/22 04:31:16;;;;;;;1.88;1.20;;;11.40;99.90;;;;;;2071461;28;20216;-81
2023/09/22 04:32:18;;;;;;;1.67;1.30;;;11.50;99.90;;;;;;2072120;28;20213;-81
2023/09/22 04:33:20;;;;;;;1.70;1.23;;;11.50;99.90;;;;;;2073233;28;20696;-81
2023/09/22 04:34:20;;;;;;;2.15;1.20;;;11.60;99.90;;;;;;2072673;28;20185;-81
2023/09/22 04:35:21;;;;;;;1.37;1.10;;;11.60;99.90;;;;;;2072024;28;20186;-81
2023/09/22 04:36:22;;;;;;;1.53;1.30;;;11.60;99.90;;;;;;2072245;28;21660;-81
2023/09/22 04:37:23;;;;;;;2.50;1.30;;;11.50;99.90;;;;;;2071886;28;20730;-81
2023/09/22 04:38:24;;;;;;;1.70;1.30;;;11.50;99.90;;;;;;2068540;28;20228;-81
2023/09/22 04:39:24;;;;;;;1.40;1.30;;;11.50;99.90;;;;;;2071639;28;20284;-80
2023/09/22 04:40:29;;;;;;;1.20;1.10;;;11.50;99.90;;;;;;2072957;28;20236;-81
2023/09/22 04:41:30;;;;;;;1.75;1.00;;;11.50;99.90;;;;;;2072316;28;20225;-81
2023/09/22 04:42:30;;;;;;;1.40;1.30;;;11.50;99.90;;;;;;2073220;28;20324;-82
2023/09/22 04:43:31;;;;;;;2.10;1.17;;;11.40;99.90;;;;;;2074908;28;20670;-81
2023/09/22 04:44:32;;;;;;;2.30;1.30;;;11.40;99.90;;;;;;2073413;28;20307;-81
2023/09/22 04:45:39;;;;;;;1.75;1.20;;;11.40;99.90;;;;;;2072742;28;20232;-81
2023/09/22 04:46:39;;;;;;;2.28;1.30;;;11.50;99.90;;;;;;2073083;28;20221;-81
2023/09/22 04:47:40;;;;;;;1.30;1.20;;;11.50;99.90;;;;;;2072690;28;20716;-81
2023/09/22 04:48:41;;;;;;;2.10;1.50;;;11.50;99.90;;;;;;2072206;28;20599;-81
2023/09/22 04:49:42;;;;;;;1.10;1.00;;;11.50;99.90;;;;;;2072902;28;20237;-82
2023/09/22 04:50:42;;;;;;;2.40;1.20;;;11.50;99.90;;;;;;2072590;28;20226;-81
2023/09/22 04:51:43;;;;;;;1.50;1.33;;;11.50;99.90;;;;;;2071733;28;20308;-80
2023/09/22 04:52:47;;;;;;;1.33;1.23;;;11.50;99.90;;;;;;2072006;28;20225;-81
2023/09/22 04:53:48;;;;;;;1.55;1.15;;;11.60;99.90;;;;;;2071767;28;20232;-81
2023/09/22 04:54:49;;;;;;;1.35;1.13;;;11.60;99.90;;;;;;2072792;28;20239;-82
2023/09/22 04:55:58;;;;;;;2.30;1.07;;;11.60;99.90;;;;;;2072261;28;20230;-81
2023/09/22 04:56:59;;;;;;;1.30;1.13;;;11.60;99.90;;;;;;2063766;28;20234;-80
2023/09/22 04:58:00;;;;;;;1.27;1.17;;;11.60;99.90;;;;;;2063613;28;20225;-82
2023/09/22 04:59:00;;;;;;;1.73;1.37;;;11.60;99.90;;;;;;2063252;28;20284;-81
2023/09/22 05:00:05;;;;;;;1.27;1.17;;;11.60;99.90;;;;;;2071865;28;20726;-81
2023/09/22 05:01:06;;;;;;;1.95;1.10;;;11.60;99.90;;;;;;2072006;28;20328;-81
2023/09/22 05:02:06;;;;;;;1.17;0.90;;;11.50;99.90;;;;;;2071525;28;20186;-81
2023/09/22 05:03:07;;;;;;;2.00;1.48;;;11.60;99.90;;;;;;2071900;28;20202;-81
2023/09/22 05:04:08;;;;;;;1.53;1.10;;;11.60;99.90;;;;;;2072046;28;20672;-81
2023/09/22 05:05:10;;;;;;;2.08;1.00;;;11.60;99.90;;;;;;2064115;28;20206;-81
2023/09/22 05:06:12;;;;;;;3.42;1.42;;;11.60;99.90;;;;;;2071855;28;20189;-81
2023/09/22 05:07:13;;;;;;;2.28;1.20;;;11.60;99.90;;;;;;2072188;28;20189;-81
2023/09/22 05:08:13;;;;;;;1.20;1.10;;;11.70;99.90;;;;;;2071777;28;20224;-81
2023/09/22 05:09:14;;;;;;;1.10;1.00;;;11.70;99.90;;;;;;2071512;28;20217;-82
2023/09/22 05:10:14;;;;;;;1.20;1.10;;;11.70;99.90;;;;;;2071556;28;20308;-81
2023/09/22 05:11:15;;;;;;;2.57;1.00;;;11.70;99.90;;;;;;2079800;28;20288;-81
2023/09/22 05:12:16;;;;;;;1.50;1.23;;;11.70;99.90;;;;;;2072385;28;20189;-82
2023/09/22 05:13:17;;;;;;;1.30;1.20;;;11.80;99.90;;;;;;2072022;28;20240;-82
2023/09/22 05:14:17;;;;;;;1.20;1.10;;;11.80;99.90;;;;;;2071994;28;20193;-82
2023/09/22 05:15:19;;;;;;;1.73;1.10;;;11.80;99.90;;;;;;2072202;28;20276;-82
2023/09/22 05:16:21;;;;;;;1.80;1.10;;;11.80;99.90;;;;;;2071968;28;20252;-81
2023/09/22 05:17:22;;;;;;;1.23;1.13;;;11.80;99.90;;;;;;2059939;28;20222;-81
2023/09/22 05:18:23;;;;;;;3.07;1.23;;;11.80;99.90;;;;;;2064008;28;20245;-82
2023/09/22 05:19:24;;;;;;;1.70;1.50;;;11.80;99.90;;;;;;2071869;28;20494;-82